Airfield :
LOGIN :

Register | Disclaimer

   EN    FR    IT 

 










Legend :    VFR   Marginal VFR   IFR   Intensive IFR   Very Intensive IFR
Visi :
Ceiling :
>= 8 km
>= 3000ft
5 to 8 km
1000 to 3000 ft
1500m to 5 km
500 to 1000 ft
800 to 1500m
200 to 500 ft
< 800m
< 200 ft
Symbols :   Thunderstorms  Fog  Heavy snow  Heavy precipitations  Wind > 20 kt
SIGMETs :     Misc.  Thunderstorms  Icing  Turbulence  Mountain Waves  Volcanic Ashes






- Airport Elevation : 124 ft
- IATA code : RNS


LFRN - Rennes

CURRENT METAR :
  • 230500Z AUTO 22011KT 9999 FEW034/// SCT052/// BKN100/// ///TCU 06/03 Q0992 TEMPO VRB15G30KT 2000 TSRAGS BKN005 BKN015CB

EXPIRED METARs :
  • 230430Z AUTO 21009KT 9999 FEW036 SCT050 BKN066 05/04 Q0993 TEMPO VRB15G30KT 2000 TSRAGS BKN005 BKN015CB
  • 230400Z AUTO 17011KT 9999 FEW007/// BKN011/// BKN090/// ///CB 04/04 Q0993 TEMPO VRB15G30KT 2000 TSRAGS BKN005 BKN015CB
  • 230330Z AUTO 16009KT 9999 -RA SCT021/// BKN028/// OVC035/// ///CB 05/03 Q0994 TEMPO VRB15G30KT 2000 TSRAGS BKN005 BKN015CB
  • 230300Z AUTO 18010KT 9999 -DZ FEW013 BKN032 OVC048 05/03 Q0995 TEMPO VRB15G30KT 2000 TSRAGS BKN005 BKN015CB
  • 230230Z AUTO 19015KT 9999 FEW016/// SCT041/// BKN058/// ///CB 05/03 Q0996 TEMPO VRB15G30KT 2000 TSRAGS BKN005 BKN015CB

TAF TAF LFRN
Valid from the 23 at 00:00 until the 24 at 00:00 UTC


222300Z 2300/2324 17010KT 9999 SCT030
TEMPO 2302/2309 4000 SHRAGS BKN010CB
PROB40
TEMPO 2302/2309 VRB15G30KT 2000 TSRAGS BKN005 BKN015CB
BECMG 2303/2305 23010KT
BECMG 2307/2309 29010KT
TEMPO 2309/2312 4000 SHRA BKN010CB
BECMG 2309/2311 34020G35KT
BECMG 2312/2314 32010KT
BECMG 2317/2319 VRB03KT
PROB40
TEMPO 2322/2324 3000 BR
ATIS : +33 2 99 67 72 50



MET'MAP, your aeronautical weather chart ! - Copyright ORBIFLY December 2007 - Disclaimer

ORBIFLY MET'MAP TEAM :

Programming & Development : Alexandra Zaïnal
Concept & original design : Baudouin d'Aumeries
Assistance for programming : Marc-Olivier Méhu
Technical & hardware support : Manuel Goepfert

Contact : metmap@orbifly.com




SOURCES & CREDITS :

   NOAA